Time;durP1;ratioP1;P1;durP2;ratioP2;P2;SDS_P1;SDS_P2;PMS_P1;PMS_P2;Temp;Humidity;BMP_temperature;BMP_pressure;BME280_temperature;BME280_humidity;BME280_pressure;Samples;Min_cycle;Max_cycle;Signal;HPM_P1;HPM_P2
2022/05/28 00:00:45;;;;;;;13.68;3.88;;;;;;;13.55;61.39;102074.16;5012450;28;20053;-47
2022/05/28 00:03:34;;;;;;;12.80;3.63;;;;;;;13.49;61.75;102075.19;5012898;28;20050;-47
2022/05/28 00:06:24;;;;;;;12.95;3.88;;;;;;;13.46;62.01;102067.50;5013182;28;20042;-47
2022/05/28 00:09:11;;;;;;;10.23;3.38;;;;;;;13.42;62.14;102069.06;5013581;28;20056;-48
2022/05/28 00:11:59;;;;;;;12.07;3.97;;;;;;;13.40;62.05;102063.06;5027558;28;20057;-48
2022/05/28 00:14:47;;;;;;;19.15;4.05;;;;;;;13.40;61.87;102054.84;5036058;28;20045;-48
2022/05/28 00:17:36;;;;;;;12.75;3.90;;;;;;;13.40;62.41;102050.19;5032537;28;20038;-48
2022/05/28 00:20:23;;;;;;;17.67;3.70;;;;;;;13.42;62.37;102058.97;5017415;28;20445;-49
2022/05/28 00:23:13;;;;;;;11.98;3.92;;;;;;;13.41;62.53;102051.81;5021030;28;20038;-49
2022/05/28 00:26:00;;;;;;;13.80;3.88;;;;;;;13.40;62.57;102054.84;5035767;28;20046;-48
2022/05/28 00:28:50;;;;;;;11.75;3.70;;;;;;;13.36;62.58;102068.19;5025365;28;20049;-47
2022/05/28 00:31:38;;;;;;;11.15;3.70;;;;;;;13.33;62.58;102062.44;5028150;28;20041;-49
2022/05/28 00:34:27;;;;;;;13.68;3.95;;;;;;;13.32;62.72;102063.50;5035880;28;20045;-48
2022/05/28 00:37:15;;;;;;;10.45;3.40;;;;;;;13.32;62.43;102056.09;5033090;28;20056;-48
2022/05/28 00:40:05;;;;;;;14.07;4.18;;;;;;;13.30;63.06;102049.22;5022482;28;20038;-47
2022/05/28 00:42:57;;;;;;;14.35;3.70;;;;;;;13.24;63.37;102042.84;5034046;28;20042;-49
2022/05/28 00:45:46;;;;;;;12.38;3.10;;;;;;;13.26;63.43;102046.16;5035687;28;20455;-48
2022/05/28 00:48:37;;;;;;;11.52;3.35;;;;;;;13.29;63.68;102033.91;5024732;28;20049;-47
2022/05/28 00:51:28;;;;;;;13.23;3.63;;;;;;;13.29;63.53;102036.63;5028291;28;20049;-46
2022/05/28 00:54:16;;;;;;;12.68;3.70;;;;;;;13.25;63.83;102038.19;5026767;28;20408;-48
2022/05/28 00:57:04;;;;;;;15.55;3.80;;;;;;;13.24;64.14;102042.03;5018690;28;20061;-47
2022/05/28 00:59:54;;;;;;;12.55;4.18;;;;;;;13.21;64.32;102041.44;5027743;28;20416;-48
2022/05/28 01:02:54;;;;;;;14.32;3.50;;;;;;;13.18;64.76;102041.97;5015635;28;20069;-47
2022/05/28 01:05:45;;;;;;;12.35;4.00;;;;;;;13.19;64.83;102035.41;5014308;28;20069;-47
2022/05/28 01:09:02;;;;;;;13.55;3.90;;;;;;;13.17;64.50;102042.22;5015273;28;20050;-47
2022/05/28 01:12:13;;;;;;;10.88;3.92;;;;;;;13.12;65.12;102037.50;5034467;28;20045;-48
2022/05/28 01:15:21;;;;;;;20.50;4.07;;;;;;;13.11;65.37;102027.66;5016410;28;20042;-47
2022/05/28 01:18:20;;;;;;;15.02;4.00;;;;;;;13.11;65.16;102030.41;5013715;28;20099;-48
2022/05/28 01:21:19;;;;;;;15.85;3.92;;;;;;;13.12;65.97;102034.78;5014811;28;20065;-52
2022/05/28 01:24:14;;;;;;;14.90;3.90;;;;;;;13.11;66.03;102035.03;5020144;28;20049;-49
2022/05/28 01:27:07;;;;;;;10.30;3.72;;;;;;;13.08;65.70;102030.88;5034985;28;20523;-51
2022/05/28 01:29:58;;;;;;;21.52;4.47;;;;;;;13.09;66.51;102027.09;5021753;28;20409;-48
2022/05/28 01:32:50;;;;;;;14.43;4.13;;;;;;;13.07;66.29;102040.19;5014621;28;20050;-51
2022/05/28 01:35:38;;;;;;;12.63;3.60;;;;;;;13.06;66.55;102035.81;5013692;28;20117;-48
2022/05/28 01:38:27;;;;;;;11.05;3.53;;;;;;;13.02;66.86;102031.09;5023243;28;20080;-47
2022/05/28 01:41:15;;;;;;;13.57;4.20;;;;;;;12.99;66.89;102025.03;5015391;28;20521;-48
2022/05/28 01:44:04;;;;;;;11.80;3.80;;;;;;;12.97;67.00;102031.84;5024535;28;20050;-47
2022/05/28 01:46:52;;;;;;;11.48;3.65;;;;;;;12.95;66.95;102025.81;5024796;28;20046;-48
2022/05/28 01:49:41;;;;;;;15.90;4.78;;;;;;;12.94;67.70;102026.88;5022220;28;20096;-47
2022/05/28 01:52:29;;;;;;;12.95;4.15;;;;;;;12.92;67.49;102031.78;5031558;28;20115;-46
2022/05/28 01:55:18;;;;;;;14.93;4.10;;;;;;;12.88;67.86;102036.09;5020373;28;20061;-44
2022/05/28 01:58:06;;;;;;;10.93;3.65;;;;;;;12.89;68.29;102038.59;5017672;28;20107;-46
2022/05/28 02:00:54;;;;;;;12.18;3.65;;;;;;;12.89;68.65;102035.88;5030136;28;20519;-48
2022/05/28 02:03:43;;;;;;;12.45;3.95;;;;;;;12.89;68.15;102037.75;5034363;28;20049;-45
2022/05/28 02:06:33;;;;;;;14.98;3.72;;;;;;;12.87;68.49;102038.03;5014149;28;20487;-45
2022/05/28 02:09:24;;;;;;;16.05;3.97;;;;;;;12.88;69.43;102036.09;5023999;28;20046;-47
2022/05/28 02:12:30;;;;;;;16.45;4.22;;;;;;;12.87;69.60;102034.44;5021527;28;20054;-48
2022/05/28 02:15:27;;;;;;;13.88;4.15;;;;;;;12.86;69.32;102028.16;5022875;28;20515;-47
2022/05/28 02:18:49;;;;;;;15.02;4.15;;;;;;;12.89;68.92;102021.34;5022239;28;20479;-46
2022/05/28 02:21:45;;;;;;;16.67;3.78;;;;;;;12.89;70.27;102027.66;5027177;28;20042;-48
2022/05/28 02:24:42;;;;;;;12.82;3.85;;;;;;;12.91;69.39;102019.19;5033707;28;20054;-47
2022/05/28 02:27:30;;;;;;;15.23;4.03;;;;;;;12.90;69.64;102015.63;5019963;28;20041;-48
2022/05/28 02:30:17;;;;;;;12.25;3.88;;;;;;;12.89;69.76;102011.25;5029510;28;20041;-49
2022/05/28 02:33:03;;;;;;;10.50;3.60;;;;;;;12.88;69.66;102008.75;5013849;28;20053;-47
2022/05/28 02:35:51;;;;;;;12.63;3.90;;;;;;;12.87;70.57;102004.34;5028909;28;20049;-49
2022/05/28 02:38:38;;;;;;;10.38;3.70;;;;;;;12.87;70.28;101996.16;5028677;28;20408;-48
2022/05/28 02:41:26;;;;;;;10.75;3.15;;;;;;;12.86;70.24;101999.97;5032994;28;20046;-53
2022/05/28 02:44:14;;;;;;;14.32;4.20;;;;;;;12.84;69.99;101991.19;5032675;28;20060;-52
2022/05/28 02:47:02;;;;;;;11.63;3.78;;;;;;;12.81;70.49;101995.25;5025107;28;20048;-44
2022/05/28 02:49:51;;;;;;;11.57;4.32;;;;;;;12.76;70.48;101992.47;5032128;28;20092;-44
2022/05/28 02:52:39;;;;;;;12.98;4.13;;;;;;;12.75;70.82;101991.66;5031329;28;20124;-49
2022/05/28 02:55:26;;;;;;;12.60;3.60;;;;;;;12.71;70.96;101987.75;5032896;28;20049;-44
2022/05/28 02:58:15;;;;;;;14.35;4.18;;;;;;;12.67;71.79;101997.53;5028038;28;20053;-44
2022/05/28 03:01:06;;;;;;;11.70;4.03;;;;;;;12.67;72.08;102003.00;5028439;28;20038;-44
2022/05/28 03:03:55;;;;;;;14.05;4.38;;;;;;;12.65;71.83;101998.88;5014333;28;20057;-49
2022/05/28 03:06:44;;;;;;;11.85;3.75;;;;;;;12.64;71.79;102006.25;5021588;28;20057;-48
2022/05/28 03:09:31;;;;;;;11.93;3.55;;;;;;;12.64;72.05;102008.16;5019444;28;20052;-48
2022/05/28 03:12:19;;;;;;;14.82;3.78;;;;;;;12.64;72.57;102013.63;5032624;28;20056;-46
2022/05/28 03:15:07;;;;;;;11.27;3.58;;;;;;;12.63;73.25;102012.81;5023625;28;20049;-47
2022/05/28 03:17:56;;;;;;;12.13;3.55;;;;;;;12.64;72.65;102013.63;5027943;28;20107;-45
2022/05/28 03:20:44;;;;;;;13.93;4.13;;;;;;;12.61;73.26;102006.78;5030185;28;20056;-46
2022/05/28 03:23:32;;;;;;;11.43;4.00;;;;;;;12.61;73.62;102014.97;5032603;28;20125;-47
2022/05/28 03:26:25;;;;;;;14.77;3.88;;;;;;;12.60;73.99;102018.78;5014172;28;20052;-45
2022/05/28 03:29:13;;;;;;;14.40;3.70;;;;;;;12.58;74.45;102015.47;5020985;28;20057;-47
2022/05/28 03:32:00;;;;;;;12.13;4.25;;;;;;;12.56;74.98;102012.16;5032695;28;20056;-47
2022/05/28 03:34:48;;;;;;;12.20;3.22;;;;;;;12.54;74.76;102011.59;5031751;28;20055;-51
2022/05/28 03:37:36;;;;;;;14.70;3.80;;;;;;;12.51;75.35;102014.84;5031221;28;20050;-51
2022/05/28 03:40:23;;;;;;;15.50;4.45;;;;;;;12.51;76.06;102009.38;5021980;28;20049;-51
2022/05/28 03:43:11;;;;;;;13.70;3.70;;;;;;;12.50;75.87;102019.44;5032671;28;20061;-52
2022/05/28 03:45:59;;;;;;;12.32;3.42;;;;;;;12.51;75.81;102020.31;5034370;28;20045;-50
2022/05/28 03:48:46;;;;;;;13.13;3.45;;;;;;;12.52;76.46;102011.00;5020434;28;20048;-47
2022/05/28 03:51:15;;;;;;;20.17;4.20;;;;;;;12.52;76.31;102017.31;5015760;28;20080;-48
2022/05/28 03:54:03;;;;;;;9.48;3.40;;;;;;;12.53;76.08;102021.72;5035433;28;20485;-47
2022/05/28 03:56:55;;;;;;;21.30;4.03;;;;;;;12.53;76.07;102023.59;5035101;28;20045;-48
2022/05/28 03:59:43;;;;;;;12.02;3.53;;;;;;;12.50;76.87;102024.09;5030933;28;20800;-49
2022/05/28 04:02:30;;;;;;;11.98;3.28;;;;;;;12.51;77.34;102025.78;5033952;28;20517;-45
2022/05/28 04:05:18;;;;;;;14.48;3.70;;;;;;;12.50;77.22;102024.91;5029947;28;20061;-49
2022/05/28 04:08:07;;;;;;;13.35;3.58;;;;;;;12.50;77.18;102029.56;5033095;28;20052;-48
2022/05/28 04:10:54;;;;;;;15.48;4.20;;;;;;;12.51;77.64;102032.06;5036189;28;20061;-47
2022/05/28 04:13:42;;;;;;;13.98;3.70;;;;;;;12.53;78.12;102042.72;5035965;28;20455;-50
2022/05/28 04:16:30;;;;;;;12.55;3.42;;;;;;;12.51;78.40;102037.53;5033975;28;20050;-48
2022/05/28 04:19:17;;;;;;;17.20;4.10;;;;;;;12.53;77.88;102035.38;5031755;28;20084;-47
2022/05/28 04:22:05;;;;;;;12.50;3.42;;;;;;;12.52;78.19;102032.88;5034128;28;20057;-47
2022/05/28 04:24:52;;;;;;;13.18;3.92;;;;;;;12.52;78.68;102032.88;5035702;28;20046;-46
2022/05/28 04:27:41;;;;;;;16.08;3.70;;;;;;;12.53;78.31;102043.56;5030446;28;20052;-48
2022/05/28 04:30:29;;;;;;;13.55;3.53;;;;;;;12.52;78.94;102041.09;5027027;28;20049;-46
2022/05/28 04:33:16;;;;;;;14.25;4.40;;;;;;;12.50;80.02;102052.25;5033563;28;20150;-46
2022/05/28 04:36:04;;;;;;;12.95;3.30;;;;;;;12.51;79.70;102053.13;5028345;28;20046;-47
2022/05/28 04:38:52;;;;;;;15.43;4.13;;;;;;;12.51;79.35;102050.38;5035331;28;20049;-48
2022/05/28 04:41:40;;;;;;;13.77;3.67;;;;;;;12.49;80.07;102055.25;5022760;28;20381;-48
2022/05/28 04:44:27;;;;;;;19.75;3.90;;;;;;;12.48;80.76;102053.59;5034975;28;20042;-47
2022/05/28 04:47:15;;;;;;;15.40;3.35;;;;;;;12.47;81.35;102054.69;5022225;28;20046;-46
2022/05/28 04:50:03;;;;;;;14.55;3.70;;;;;;;12.50;80.50;102059.63;5035178;28;20052;-47
2022/05/28 04:52:50;;;;;;;12.98;3.63;;;;;;;12.51;80.75;102055.84;5035292;28;20068;-48
2022/05/28 04:55:33;;;;;;;11.05;3.28;;;;;;;12.52;81.66;102057.47;5013226;28;20049;-51
2022/05/28 04:58:21;;;;;;;15.13;3.53;;;;;;;12.52;80.53;102060.22;5016620;28;20052;-48
2022/05/28 05:01:12;;;;;;;17.27;4.05;;;;;;;12.49;81.42;102064.28;5016300;28;20038;-49
2022/05/28 05:03:41;;;;;;;21.33;4.78;;;;;;;12.45;81.24;102065.03;5028748;28;20037;-49
2022/05/28 05:06:29;;;;;;;16.98;3.65;;;;;;;12.47;81.42;102068.34;5033386;28;20451;-54
2022/05/28 05:09:16;;;;;;;14.25;3.50;;;;;;;12.47;81.48;102065.63;5035322;28;20527;-52
2022/05/28 05:12:04;;;;;;;13.45;3.22;;;;;;;12.49;81.40;102066.19;5034586;28;20048;-54
2022/05/28 05:14:52;;;;;;;18.95;4.50;;;;;;;12.50;80.04;102068.66;5033293;28;20045;-56
2022/05/28 05:17:40;;;;;;;14.02;3.55;;;;;;;12.51;79.88;102069.50;5029022;28;20056;-53
2022/05/28 05:20:27;;;;;;;14.55;3.25;;;;;;;12.53;79.72;102078.25;5025422;28;20053;-51
2022/05/28 05:23:17;;;;;;;18.83;3.92;;;;;;;12.49;80.22;102077.94;5021408;28;20052;-52
2022/05/28 05:26:09;;;;;;;12.57;3.13;;;;;;;12.50;79.28;102073.31;5032879;28;20049;-50
2022/05/28 05:28:58;;;;;;;13.27;3.20;;;;;;;12.49;78.81;102072.50;5023822;28;20057;-49
2022/05/28 05:31:45;;;;;;;15.07;3.70;;;;;;;12.45;78.65;102075.97;5020953;28;20073;-50
2022/05/28 05:34:33;;;;;;;16.13;3.20;;;;;;;12.43;78.74;102072.66;5032147;28;20049;-50
2022/05/28 05:37:21;;;;;;;14.45;3.38;;;;;;;12.47;78.59;102071.91;5015721;28;20050;-50
2022/05/28 05:40:09;;;;;;;17.08;3.60;;;;;;;12.49;77.93;102077.94;5033835;28;20111;-50
2022/05/28 05:42:58;;;;;;;13.63;3.20;;;;;;;12.49;77.57;102077.13;5013246;28;20049;-50
2022/05/28 05:45:57;;;;;;;13.02;2.90;;;;;;;12.48;77.67;102086.41;5015279;28;20049;-50
2022/05/28 05:48:45;;;;;;;11.25;2.75;;;;;;;12.49;76.92;102079.88;5024136;28;20048;-52
2022/05/28 05:51:32;;;;;;;11.40;3.05;;;;;;;12.47;76.44;102079.28;5020991;28;20164;-52
2022/05/28 05:54:20;;;;;;;13.80;3.13;;;;;;;12.50;76.36;102082.34;5026661;28;20054;-51
2022/05/28 05:57:08;;;;;;;12.65;2.72;;;;;;;12.55;76.31;102089.78;5011131;28;20046;-51
2022/05/28 05:59:57;;;;;;;14.43;3.50;;;;;;;12.56;74.83;102096.94;5031084;28;20056;-51
2022/05/28 06:02:44;;;;;;;12.98;2.90;;;;;;;12.54;74.84;102102.63;5031923;28;20045;-49
2022/05/28 06:05:32;;;;;;;11.90;2.70;;;;;;;12.51;74.13;102094.13;5014533;28;20116;-54
2022/05/28 06:08:20;;;;;;;10.07;2.65;;;;;;;12.53;72.89;102089.19;4999466;28;20046;-48
2022/05/28 06:11:07;;;;;;;12.43;2.88;;;;;;;12.51;71.79;102094.13;5033334;28;20053;-47
2022/05/28 06:13:36;;;;;;;11.90;2.60;;;;;;;12.50;70.57;102100.66;5033503;28;20049;-51
2022/05/28 06:16:23;;;;;;;8.25;2.70;;;;;;;12.52;70.58;102101.22;5014655;28;20049;-53
2022/05/28 06:19:12;;;;;;;8.52;2.60;;;;;;;12.52;71.59;102093.03;5022600;28;20045;-49
2022/05/28 06:21:59;;;;;;;10.90;2.90;;;;;;;12.57;70.96;102106.78;5027433;28;20389;-50
2022/05/28 06:24:46;;;;;;;10.68;2.85;;;;;;;12.53;69.10;102094.66;5022681;28;20054;-45
2022/05/28 06:27:36;;;;;;;10.40;2.72;;;;;;;12.57;70.23;102102.13;5029428;28;20045;-48
2022/05/28 06:30:24;;;;;;;11.32;2.85;;;;;;;12.56;69.53;102107.88;5011670;28;20045;-50
2022/05/28 06:33:12;;;;;;;8.18;2.42;;;;;;;12.57;69.03;102106.78;5032499;28;20053;-46
2022/05/28 06:36:02;;;;;;;10.20;2.90;;;;;;;12.65;67.36;102125.50;5016833;28;20048;-49
2022/05/28 06:38:49;;;;;;;10.40;2.83;;;;;;;12.66;67.07;102110.75;5016304;28;20041;-48
2022/05/28 06:41:37;;;;;;;17.65;3.10;;;;;;;12.69;66.58;102118.44;5031867;28;20480;-47
2022/05/28 06:44:26;;;;;;;9.65;3.05;;;;;;;12.73;66.94;102107.84;5015130;28;20055;-48
2022/05/28 06:47:13;;;;;;;7.93;2.72;;;;;;;12.77;65.60;102118.03;5020651;28;20048;-47
2022/05/28 06:53:08;;;;;;;10.18;2.60;;;;;;;12.73;64.34;102127.81;5022786;28;20527;-48
2022/05/28 06:55:55;;;;;;;15.50;2.67;;;;;;;12.77;64.51;102118.03;5020314;28;20055;-49
2022/05/28 06:58:43;;;;;;;10.10;2.40;;;;;;;12.71;64.52;102124.50;5031972;28;20049;-48
2022/05/28 07:01:31;;;;;;;9.98;2.40;;;;;;;12.69;62.76;102115.69;5027523;28;20488;-51
2022/05/28 07:04:20;;;;;;;9.63;2.70;;;;;;;12.70;63.78;102117.38;5026844;28;20045;-48
2022/05/28 07:07:07;;;;;;;8.95;2.38;;;;;;;12.73;64.57;102119.59;5032965;28;20397;-48
2022/05/28 07:09:55;;;;;;;11.07;2.70;;;;;;;12.71;62.27;102129.13;5030217;28;20061;-49
2022/05/28 07:12:42;;;;;;;8.40;2.40;;;;;;;12.77;62.95;102120.78;5029606;28;20049;-47
2022/05/28 07:15:30;;;;;;;13.93;2.58;;;;;;;12.87;62.25;102116.50;5020404;28;20382;-52
2022/05/28 07:18:18;;;;;;;9.82;2.60;;;;;;;12.87;60.80;102130.19;5019499;28;20045;-48
2022/05/28 07:21:08;;;;;;;11.82;2.80;;;;;;;12.92;60.38;102127.53;5024956;28;20053;-51
2022/05/28 07:23:56;;;;;;;8.70;2.20;;;;;;;13.00;60.96;102113.41;5020723;28;20428;-46
2022/05/28 07:26:43;;;;;;;10.13;2.33;;;;;;;13.09;60.88;102114.66;5022498;28;20377;-48
2022/05/28 07:29:31;;;;;;;12.10;3.08;;;;;;;13.15;61.29;102115.53;5031157;28;20041;-48
2022/05/28 07:32:18;;;;;;;13.13;2.80;;;;;;;13.23;61.95;102115.09;5019792;28;20390;-51
2022/05/28 07:35:07;;;;;;;8.00;2.30;;;;;;;13.26;60.66;102119.25;5029439;28;20041;-48
2022/05/28 07:37:55;;;;;;;11.90;3.17;;;;;;;13.21;60.64;102129.03;5022217;28;20057;-50
2022/05/28 07:40:43;;;;;;;11.40;3.50;;;;;;;13.10;59.11;102121.75;5025141;28;20654;-49
2022/05/28 07:43:31;;;;;;;10.07;2.80;;;;;;;13.00;59.24;102132.56;5025766;28;20523;-50
2022/05/28 07:46:21;;;;;;;10.02;3.08;;;;;;;12.98;60.39;102135.53;5010991;28;20041;-49
2022/05/28 07:49:09;;;;;;;11.90;2.78;;;;;;;12.97;60.49;102130.34;5029722;28;20045;-50
2022/05/28 07:51:57;;;;;;;12.32;3.15;;;;;;;13.00;60.58;102116.16;5021369;28;20412;-50
2022/05/28 07:54:25;;;;;;;12.93;2.72;;;;;;;13.07;59.18;102132.41;5030765;28;20045;-49
2022/05/28 07:57:12;;;;;;;11.93;3.47;;;;;;;13.13;59.15;102126.75;5015483;28;20038;-47
2022/05/28 08:00:00;;;;;;;12.98;2.92;;;;;;;13.27;58.86;102124.47;5027344;28;20046;-50
2022/05/28 08:02:58;;;;;;;8.77;2.58;;;;;;;13.34;59.36;102124.28;5032150;28;20049;-47
2022/05/28 08:05:48;;;;;;;13.93;2.92;;;;;;;13.40;58.99;102123.28;5021715;28;20058;-49
2022/05/28 08:08:36;;;;;;;12.70;2.95;;;;;;;13.42;59.26;102130.16;5025818;28;20141;-48
2022/05/28 08:11:24;;;;;;;9.45;2.53;;;;;;;13.45;59.33;102117.88;5020061;28;20049;-49
2022/05/28 08:14:12;;;;;;;8.70;2.35;;;;;;;13.41;57.40;102123.00;5014419;28;20034;-49
2022/05/28 08:17:00;;;;;;;12.40;2.78;;;;;;;13.33;58.02;102126.22;5032150;28;20051;-51
2022/05/28 08:19:48;;;;;;;11.45;2.90;;;;;;;13.26;57.79;102128.28;5012466;28;20058;-50
2022/05/28 08:25:42;;;;;;;13.23;3.15;;;;;;;13.16;56.32;102115.28;5009404;28;20493;-52
2022/05/28 08:28:30;;;;;;;8.25;2.22;;;;;;;13.25;55.84;102118.38;5010044;28;20045;-51
2022/05/28 08:31:18;;;;;;;11.52;2.58;;;;;;;13.32;55.68;102127.28;5014983;28;20068;-50
2022/05/28 08:34:06;;;;;;;12.05;2.70;;;;;;;13.39;55.52;102108.75;5020247;28;20539;-48
2022/05/28 08:36:54;;;;;;;11.00;2.97;;;;;;;13.48;55.16;102117.34;5018705;28;20049;-51
2022/05/28 08:39:41;;;;;;;11.68;2.80;;;;;;;13.56;53.97;102121.53;5021756;28;20050;-47
2022/05/28 08:42:29;;;;;;;9.98;2.55;;;;;;;13.59;51.57;102110.91;5015404;28;20034;-52
2022/05/28 08:45:18;;;;;;;10.48;2.30;;;;;;;13.69;51.81;102115.69;5012328;28;20121;-50
2022/05/28 08:48:06;;;;;;;9.65;2.45;;;;;;;13.74;48.94;102118.47;5027951;28;20241;-52
2022/05/28 08:51:08;;;;;;;6.63;2.42;;;;;;;13.76;47.74;102123.69;5031807;28;20037;-54
2022/05/28 08:54:04;;;;;;;8.80;2.45;;;;;;;13.78;48.27;102124.25;5034079;28;20067;-52
2022/05/28 08:56:54;;;;;;;9.05;2.60;;;;;;;13.85;49.38;102124.88;5027267;28;20420;-56
2022/05/28 08:59:50;;;;;;;12.02;2.50;;;;;;;13.91;50.12;102118.38;5024693;28;20107;-54
2022/05/28 09:02:51;;;;;;;15.18;2.88;;;;;;;13.83;49.46;102113.38;5020373;28;20408;-49
2022/05/28 09:06:04;;;;;;;8.00;2.38;;;;;;;13.77;48.90;102114.38;5020265;28;20076;-49
2022/05/28 09:08:45;;;;;;;11.98;2.75;;;;;;;13.71;49.48;102127.22;5017141;28;20034;-53
2022/05/28 09:11:56;;;;;;;10.80;2.67;;;;;;;13.66;50.19;102118.09;5021689;28;20045;-50
2022/05/28 09:14:44;;;;;;;10.07;2.83;;;;;;;13.70;49.73;102113.75;5016406;28;20054;-52
2022/05/28 09:17:36;;;;;;;13.85;2.90;;;;;;;13.82;49.94;102117.19;5015199;28;20408;-49
2022/05/28 09:20:32;;;;;;;9.98;2.22;;;;;;;13.92;50.31;102121.94;5014628;28;20045;-50
2022/05/28 09:23:20;;;;;;;8.52;2.67;;;;;;;13.88;48.90;102110.69;5008835;28;20485;-49
2022/05/28 09:26:08;;;;;;;9.55;2.67;;;;;;;13.90;50.66;102110.41;5024826;28;20049;-51
2022/05/28 09:29:15;;;;;;;9.60;2.55;;;;;;;13.98;52.33;102115.44;5014514;28;20042;-50
2022/05/28 09:32:14;;;;;;;13.27;3.25;;;;;;;14.07;51.80;102114.69;5026073;28;20060;-51
2022/05/28 09:35:34;;;;;;;8.88;2.63;;;;;;;14.18;51.73;102114.78;5019158;28;20052;-53
2022/05/28 09:38:40;;;;;;;8.77;2.78;;;;;;;14.27;51.70;102102.25;5013550;28;20489;-51
2022/05/28 09:41:40;;;;;;;;;;;;;;;14.39;50.78;102097.41;5015419;28;20049;-48
2022/05/28 09:44:14;;;;;;;14.23;2.60;;;;;;;14.42;49.76;102099.63;5013170;28;19925;-47
2022/05/28 09:47:13;;;;;;;14.40;2.90;;;;;;;14.42;45.91;102096.88;5018231;28;20404;-50
2022/05/28 09:50:01;;;;;;;10.25;2.55;;;;;;;14.49;46.93;102100.22;5034202;28;20053;-48
2022/05/28 09:56:35;;;;;;;8.77;2.50;;;;;;;14.60;46.98;102109.41;5015309;28;20046;-47
2022/05/28 09:59:34;;;;;;;8.38;3.00;;;;;;;14.59;46.52;102099.50;5021763;28;20400;-49
2022/05/28 10:04:28;;;;;;;13.27;2.50;;;;;;;14.52;46.44;102101.63;5019408;28;20081;-51
2022/05/28 10:05:55;;;;;;;9.82;2.75;;;;;;;14.43;48.04;102089.47;5027681;28;20050;-52
2022/05/28 10:08:43;;;;;;;10.25;2.72;;;;;;;14.45;48.51;102090.88;5007054;28;20523;-52
2022/05/28 10:11:31;;;;;;;10.15;2.63;;;;;;;14.53;47.16;102091.47;5033450;28;20037;-49
2022/05/28 10:14:19;;;;;;;9.20;2.80;;;;;;;14.48;46.36;102095.84;5021620;28;20053;-51
2022/05/28 10:17:07;;;;;;;9.25;2.40;;;;;;;14.39;47.63;102083.72;5022211;28;20046;-47
2022/05/28 10:19:56;;;;;;;11.63;2.42;;;;;;;14.52;46.12;102081.59;5022775;28;20057;-49
2022/05/28 10:22:44;;;;;;;10.40;2.65;;;;;;;14.68;44.54;102086.97;5030855;28;20415;-51
2022/05/28 10:25:50;;;;;;;10.27;2.72;;;;;;;14.72;44.53;102100.13;5026240;28;20045;-51
2022/05/28 10:28:47;;;;;;;10.57;3.00;;;;;;;14.55;44.29;102094.81;5023549;28;20049;-54
2022/05/28 10:31:40;;;;;;;8.13;2.13;;;;;;;14.52;43.53;102081.59;5033594;28;20041;-53
2022/05/28 10:34:32;;;;;;;8.15;2.35;;;;;;;14.69;43.60;102083.09;5013904;28;20451;-50
2022/05/28 10:37:20;;;;;;;10.18;3.38;;;;;;;14.85;42.87;102078.53;5022090;28;20038;-51
2022/05/28 10:40:13;;;;;;;7.95;2.30;;;;;;;14.93;42.94;102071.72;5033488;28;20041;-50
2022/05/28 10:43:08;;;;;;;11.50;2.60;;;;;;;14.96;43.43;102076.69;5025832;28;20125;-48
2022/05/28 10:46:12;;;;;;;16.83;2.83;;;;;;;15.00;45.39;102087.97;5025867;28;20048;-49
2022/05/28 10:49:29;;;;;;;9.77;2.70;;;;;;;15.02;45.92;102080.28;5021086;28;20095;-52
2022/05/28 10:52:31;;;;;;;14.57;3.55;;;;;;;15.01;42.56;102075.88;5015273;28;20042;-49
2022/05/28 10:55:57;;;;;;;9.15;2.30;;;;;;;14.97;44.35;102072.03;5025787;28;20052;-49
2022/05/28 10:59:20;;;;;;;10.68;2.63;;;;;;;15.07;44.15;102070.16;5032649;28;20062;-49
2022/05/28 11:02:20;;;;;;;11.25;2.55;;;;;;;15.21;43.10;102073.22;5029572;28;20053;-52
2022/05/28 11:05:11;;;;;;;;;;;;;;;15.27;43.65;102074.06;5025545;28;20053;-51
2022/05/28 11:08:16;;;;;;;15.80;2.90;;;;;;;15.15;45.40;102071.53;5020699;28;19931;-47
2022/05/28 11:11:10;;;;;;;;;;;;;;;15.03;45.50;102079.19;5023555;28;20412;-47
2022/05/28 11:14:08;;;;;;;11.27;3.10;;;;;;;15.13;44.53;102066.34;5015235;28;19933;-50
2022/05/28 11:17:06;;;;;;;12.43;3.00;;;;;;;15.24;41.70;102067.19;5030990;28;20078;-49
2022/05/28 11:20:19;;;;;;;11.32;3.13;;;;;;;15.29;41.97;102066.38;5021040;28;20089;-50
2022/05/28 11:23:33;;;;;;;9.38;2.65;;;;;;;15.36;43.21;102052.41;5012706;28;20139;-53
2022/05/28 11:26:30;;;;;;;12.65;3.10;;;;;;;15.39;43.89;102065.59;5019615;28;20129;-49
2022/05/28 11:29:35;;;;;;;11.55;3.05;;;;;;;15.37;44.33;102060.38;5026739;28;20050;-51
2022/05/28 11:32:40;;;;;;;10.07;2.70;;;;;;;15.37;43.22;102062.28;5021330;28;20412;-50
2022/05/28 11:35:33;;;;;;;14.57;3.05;;;;;;;15.41;43.25;102057.91;5025645;28;20046;-50
2022/05/28 11:38:46;;;;;;;11.98;3.00;;;;;;;15.34;43.54;102055.41;5030762;28;20048;-50
2022/05/28 11:41:49;;;;;;;12.98;3.15;;;;;;;15.42;42.44;102052.16;5032570;28;20046;-49
2022/05/28 11:44:41;;;;;;;11.45;2.70;;;;;;;15.43;43.55;102039.25;5022267;28;20049;-49
2022/05/28 11:47:50;;;;;;;12.15;3.17;;;;;;;15.42;44.79;102037.63;5011666;28;20510;-51
2022/05/28 11:53:51;;;;;;;11.18;3.30;;;;;;;15.31;43.93;102047.72;5028279;28;20084;-51
2022/05/28 11:56:38;;;;;;;10.13;3.00;;;;;;;15.30;42.07;102041.41;4984349;28;20046;-51
2022/05/28 11:59:27;;;;;;;7.97;2.15;;;;;;;15.29;42.04;102034.25;5020673;28;20048;-54
2022/05/28 12:02:25;;;;;;;11.55;3.20;;;;;;;15.34;42.31;102033.44;5023078;28;20081;-50
2022/05/28 12:05:21;;;;;;;10.70;2.50;;;;;;;15.46;41.25;102019.47;5009945;28;20057;-51
2022/05/28 12:08:37;;;;;;;15.80;3.38;;;;;;;15.56;42.75;102019.47;5030412;28;20133;-55
2022/05/28 12:11:50;;;;;;;165.05;10.90;;;;;;;15.53;44.53;102031.84;5018185;28;20136;-51
2022/05/28 12:14:41;;;;;;;12.90;3.38;;;;;;;15.39;44.85;102021.66;5030974;28;20068;-51
2022/05/28 12:17:24;;;;;;;9.80;3.17;;;;;;;15.29;43.79;102025.19;5016911;28;20353;-53
2022/05/28 12:20:12;;;;;;;11.23;2.95;;;;;;;15.27;43.64;102022.75;5035507;28;20056;-52
2022/05/28 12:23:04;;;;;;;12.48;3.08;;;;;;;15.38;39.33;102017.28;5019887;28;20049;-53
2022/05/28 12:25:51;;;;;;;14.07;3.03;;;;;;;15.43;39.69;102014.53;5013178;28;20056;-47
2022/05/28 12:28:48;;;;;;;11.55;2.50;;;;;;;15.46;40.41;102003.00;5034504;28;20562;-50
2022/05/28 12:31:35;;;;;;;12.13;2.70;;;;;;;15.56;39.97;102019.47;5035698;28;20046;-50
2022/05/28 12:34:26;;;;;;;9.38;3.00;;;;;;;15.67;40.11;102012.09;5028193;28;20068;-52
2022/05/28 12:37:17;;;;;;;11.07;2.80;;;;;;;15.59;41.43;102002.47;5026820;28;20057;-52
2022/05/28 12:40:23;;;;;;;13.57;3.20;;;;;;;15.50;43.38;102029.66;5031554;28;20046;-54
2022/05/28 12:43:28;;;;;;;12.70;2.85;;;;;;;15.40;44.34;102009.59;5026482;28;20056;-55
2022/05/28 12:46:34;;;;;;;10.38;3.00;;;;;;;15.33;44.94;102005.16;5025464;28;20058;-55
2022/05/28 12:49:50;;;;;;;13.13;2.95;;;;;;;15.41;46.11;102003.00;5025504;28;20049;-52
2022/05/28 12:52:36;;;;;;;14.02;3.35;;;;;;;15.54;45.40;102002.47;5030319;28;20054;-53
2022/05/28 12:55:36;;;;;;;13.18;3.22;;;;;;;15.44;45.90;102010.69;5032032;28;20052;-49
2022/05/28 12:58:24;;;;;;;13.55;3.20;;;;;;;15.29;45.28;102020.53;5028245;28;20041;-48
2022/05/28 13:01:28;;;;;;;9.82;3.35;;;;;;;15.44;45.50;102005.19;5023562;28;20052;-49
2022/05/28 13:04:18;;;;;;;16.67;3.40;;;;;;;15.63;42.72;102002.75;5034289;28;20045;-50
2022/05/28 13:07:13;;;;;;;13.23;3.20;;;;;;;15.62;40.53;102007.41;5028171;28;20046;-50
2022/05/28 13:10:19;;;;;;;9.95;3.05;;;;;;;15.64;40.85;101999.72;5031554;28;20060;-47
2022/05/28 13:13:32;;;;;;;10.02;3.20;;;;;;;15.79;41.68;101998.13;5022725;28;20050;-51
2022/05/28 13:16:03;;;;;;;;;;;;;;;15.90;42.32;101989.63;5029091;28;20038;-47
2022/05/28 13:19:16;;;;;;;15.18;4.05;;;;;;;15.84;43.26;101995.38;5021602;28;19992;-52
2022/05/28 13:22:23;;;;;;;14.77;3.03;;;;;;;15.64;42.67;101998.91;5025108;28;20041;-50
2022/05/28 13:25:14;;;;;;;11.13;3.38;;;;;;;15.54;42.71;101984.06;5024103;28;20060;-52